createdAt,value
2022-12-26T00:00:59.076Z,91.41
2022-12-26T00:03:27.295Z,91.57
2022-12-26T00:05:56.394Z,91.47
2022-12-26T00:08:24.067Z,91.68
2022-12-26T00:10:51.852Z,91.45
2022-12-26T00:13:39.426Z,91.44
2022-12-26T00:16:08.463Z,91.59
2022-12-26T00:18:36.440Z,91.54
2022-12-26T00:21:05.859Z,91.41
2022-12-26T00:23:33.900Z,91.36
2022-12-26T00:26:04.259Z,91.47
2022-12-26T00:28:32.194Z,91.32
2022-12-26T00:31:00.119Z,91.33
2022-12-26T00:33:28.212Z,91.39
2022-12-26T00:36:01.619Z,91.10
2022-12-26T00:38:31.084Z,91.25
2022-12-26T00:40:59.018Z,91.18
2022-12-26T00:43:26.705Z,91.17
2022-12-26T00:45:54.390Z,90.90
2022-12-26T00:48:22.544Z,91.10
2022-12-26T00:50:50.284Z,91.00
2022-12-26T00:53:18.645Z,90.84
2022-12-26T00:55:47.631Z,90.94
2022-12-26T00:58:15.427Z,91.15
2022-12-26T01:00:43.250Z,90.80
2022-12-26T01:03:12.559Z,90.97
2022-12-26T01:05:42.096Z,90.72
2022-12-26T01:08:21.724Z,90.91
2022-12-26T01:10:53.442Z,90.87
2022-12-26T01:13:21.915Z,90.83
2022-12-26T01:15:50.706Z,90.83
2022-12-26T01:18:18.560Z,90.52
2022-12-26T01:20:46.263Z,90.42
2022-12-26T01:23:13.987Z,90.25
2022-12-26T01:26:19.171Z,90.49
2022-12-26T01:28:31.753Z,90.37
2022-12-26T01:31:03.084Z,90.40
2022-12-26T01:33:30.975Z,90.46
2022-12-26T01:35:58.697Z,90.56
2022-12-26T01:38:26.403Z,90.52
2022-12-26T01:41:14.478Z,90.62
2022-12-26T01:43:59.333Z,90.46
2022-12-26T01:46:32.036Z,90.64
2022-12-26T01:49:03.340Z,90.67
2022-12-26T01:51:35.127Z,90.58
2022-12-26T01:54:37.515Z,90.72
2022-12-26T01:56:54.076Z,90.92
2022-12-26T01:59:27.115Z,90.70
2022-12-26T02:01:56.453Z,90.79
2022-12-26T02:04:46.872Z,90.73
2022-12-26T02:07:14.866Z,90.98
2022-12-26T02:09:43.072Z,91.00
2022-12-26T02:12:36.540Z,91.08
2022-12-26T02:15:08.824Z,90.95
2022-12-26T02:17:37.717Z,91.20
2022-12-26T02:20:17.490Z,91.05
2022-12-26T02:23:23.786Z,90.99
2022-12-26T02:26:38.287Z,90.95
2022-12-26T02:29:50.827Z,90.73
2022-12-26T02:32:30.479Z,90.62
2022-12-26T02:35:06.065Z,90.84
2022-12-26T02:37:49.862Z,91.01
2022-12-26T02:40:35.532Z,91.16
2022-12-26T02:43:12.254Z,91.61
2022-12-26T02:46:02.246Z,92.10
2022-12-26T02:48:44.355Z,92.43
2022-12-26T02:51:39.618Z,92.41
2022-12-26T02:54:41.779Z,92.38
2022-12-26T02:57:31.924Z,92.24
2022-12-26T03:00:21.379Z,91.93
2022-12-26T03:03:10.301Z,91.79
2022-12-26T03:06:00.263Z,91.50
2022-12-26T03:08:50.233Z,91.31
2022-12-26T03:11:35.539Z,91.36
2022-12-26T03:14:12.059Z,91.34
2022-12-26T03:16:57.678Z,91.38
2022-12-26T03:19:28.875Z,91.17
2022-12-26T03:21:58.972Z,91.03
2022-12-26T03:24:47.879Z,91.11
2022-12-26T03:27:14.618Z,91.13
2022-12-26T03:29:59.940Z,90.96
2022-12-26T03:32:27.753Z,91.04
2022-12-26T03:34:55.492Z,91.04
2022-12-26T03:37:47.433Z,91.05
2022-12-26T03:40:44.061Z,91.42
2022-12-26T03:43:38.593Z,91.67
2022-12-26T03:46:34.575Z,91.55
2022-12-26T03:49:23.353Z,91.73
2022-12-26T03:52:15.489Z,91.59
2022-12-26T03:55:08.736Z,91.63
2022-12-26T03:57:59.854Z,91.34
2022-12-26T04:00:48.420Z,91.54
2022-12-26T04:03:37.483Z,91.67
2022-12-26T04:06:27.597Z,91.92
2022-12-26T04:09:18.933Z,92.13
2022-12-26T04:12:05.588Z,92.05
2022-12-26T04:14:58.589Z,92.00
2022-12-26T04:17:48.810Z,91.86
2022-12-26T04:20:21.512Z,91.80
2022-12-26T04:23:10.970Z,91.67
2022-12-26T04:26:03.574Z,91.62
2022-12-26T04:28:50.263Z,91.64
2022-12-26T04:31:43.830Z,91.25
2022-12-26T04:34:39.101Z,91.09
2022-12-26T04:37:33.419Z,91.01
2022-12-26T04:40:20.524Z,91.41
2022-12-26T04:43:48.963Z,91.47
2022-12-26T04:45:57.802Z,91.56
2022-12-26T04:48:42.240Z,91.62
2022-12-26T04:51:09.915Z,91.93
2022-12-26T04:53:37.610Z,92.33
2022-12-26T04:56:05.668Z,92.33
2022-12-26T04:58:33.335Z,92.20
2022-12-26T05:01:16.409Z,92.14
2022-12-26T05:04:01.791Z,91.67
2022-12-26T05:06:47.541Z,91.86
2022-12-26T05:09:39.387Z,91.79
2022-12-26T05:12:09.556Z,92.04
2022-12-26T05:14:38.544Z,92.11
2022-12-26T05:17:26.472Z,92.04
2022-12-26T05:20:11.890Z,91.97
2022-12-26T05:22:59.689Z,91.75
2022-12-26T05:25:48.318Z,91.45
2022-12-26T05:28:35.105Z,91.28
2022-12-26T05:31:03.511Z,91.30
2022-12-26T05:33:50.197Z,91.12
2022-12-26T05:36:20.138Z,91.08
2022-12-26T05:38:48.198Z,91.28
2022-12-26T05:41:16.025Z,91.47
2022-12-26T05:43:43.742Z,91.45
2022-12-26T05:46:11.551Z,91.68
2022-12-26T05:48:40.641Z,91.55
2022-12-26T05:51:08.631Z,91.75
2022-12-26T05:53:36.373Z,92.00
2022-12-26T05:56:05.540Z,91.77
2022-12-26T05:58:33.891Z,91.57
2022-12-26T06:01:09.996Z,91.52
2022-12-26T06:03:38.811Z,91.57
2022-12-26T06:06:08.215Z,91.63
2022-12-26T06:08:36.249Z,91.60
2022-12-26T06:11:05.996Z,91.08
2022-12-26T06:13:33.884Z,90.56
2022-12-26T06:16:05.671Z,90.53
2022-12-26T06:18:33.488Z,90.88
2022-12-26T06:21:04.045Z,90.29
2022-12-26T06:23:33.124Z,90.33
2022-12-26T06:26:00.866Z,90.20
2022-12-26T06:28:28.838Z,90.24
2022-12-26T06:31:03.288Z,90.55
2022-12-26T06:33:31.140Z,90.65
2022-12-26T06:36:04.998Z,90.44
2022-12-26T06:38:34.350Z,90.47
2022-12-26T06:41:02.391Z,90.68
2022-12-26T06:43:30.065Z,90.35
2022-12-26T06:45:58.577Z,90.35
2022-12-26T06:48:26.977Z,90.34
2022-12-26T06:50:55.384Z,90.01
2022-12-26T06:53:24.105Z,90.03
2022-12-26T06:55:53.353Z,90.16
2022-12-26T06:58:21.360Z,89.86
2022-12-26T07:00:49.143Z,90.01
2022-12-26T07:03:16.855Z,89.92
2022-12-26T07:05:44.576Z,89.96
2022-12-26T07:08:12.255Z,90.15
2022-12-26T07:10:39.912Z,90.19
2022-12-26T07:13:08.931Z,90.26
2022-12-26T07:15:36.634Z,90.60
2022-12-26T07:18:05.379Z,90.73
2022-12-26T07:20:33.080Z,90.51
2022-12-26T07:23:00.766Z,90.47
2022-12-26T07:25:28.450Z,90.40
2022-12-26T07:27:56.217Z,90.23
2022-12-26T07:30:25.410Z,89.88
2022-12-26T07:32:53.849Z,89.07
2022-12-26T07:35:21.541Z,89.19
2022-12-26T07:37:49.333Z,89.21
2022-12-26T07:40:17.115Z,88.88
2022-12-26T07:42:44.814Z,89.07
2022-12-26T07:45:13.471Z,89.37
2022-12-26T07:47:42.650Z,89.56
2022-12-26T07:50:10.795Z,89.81
2022-12-26T07:52:38.606Z,89.98
2022-12-26T07:55:07.064Z,90.21
2022-12-26T07:57:50.272Z,90.28
2022-12-26T08:00:18.927Z,90.29
2022-12-26T08:02:49.404Z,90.59
2022-12-26T08:05:18.177Z,90.68
2022-12-26T08:07:47.708Z,90.77
2022-12-26T08:10:15.638Z,90.21
2022-12-26T08:12:43.306Z,90.30
2022-12-26T08:15:13.802Z,89.86
2022-12-26T08:17:41.631Z,89.87
2022-12-26T08:20:11.175Z,89.58
2022-12-26T08:22:39.164Z,89.55
2022-12-26T08:25:08.010Z,89.41
2022-12-26T08:27:35.739Z,88.99
2022-12-26T08:30:03.524Z,88.85
2022-12-26T08:32:31.229Z,88.14
2022-12-26T08:34:58.985Z,88.14
2022-12-26T08:37:28.084Z,88.16
2022-12-26T08:39:55.766Z,87.87
2022-12-26T08:42:24.066Z,87.82
2022-12-26T08:44:51.757Z,88.04
2022-12-26T08:47:19.480Z,88.03
2022-12-26T08:49:47.319Z,88.01
2022-12-26T08:52:15.017Z,88.29
2022-12-26T08:54:44.130Z,88.23
2022-12-26T08:57:13.826Z,88.32
2022-12-26T08:59:41.479Z,88.34
2022-12-26T09:02:11.439Z,88.16
2022-12-26T09:04:39.330Z,88.12
2022-12-26T09:07:09.060Z,87.84
2022-12-26T09:09:36.724Z,87.46
2022-12-26T09:12:06.233Z,87.44
2022-12-26T09:14:33.980Z,87.55
2022-12-26T09:17:01.665Z,87.50
2022-12-26T09:19:29.776Z,87.46
2022-12-26T09:22:11.367Z,87.57
2022-12-26T09:24:39.133Z,87.15
2022-12-26T09:27:08.428Z,86.90
2022-12-26T09:29:38.101Z,85.97
2022-12-26T09:32:06.320Z,86.03
2022-12-26T09:34:34.014Z,86.29
2022-12-26T09:37:01.685Z,86.57
2022-12-26T09:39:29.339Z,85.61
2022-12-26T09:42:05.467Z,84.88
2022-12-26T09:44:44.657Z,83.94
2022-12-26T09:47:23.856Z,83.80
2022-12-26T09:49:56.414Z,83.48
2022-12-26T09:52:36.663Z,83.36
2022-12-26T09:55:14.788Z,83.34
2022-12-26T09:57:46.081Z,82.92
2022-12-26T10:00:21.448Z,82.77
2022-12-26T10:02:53.709Z,83.42
2022-12-26T10:05:22.887Z,83.58
2022-12-26T10:07:57.590Z,83.64
2022-12-26T10:10:36.432Z,83.93
2022-12-26T10:13:11.480Z,84.35
2022-12-26T10:15:46.522Z,84.60
2022-12-26T10:18:26.004Z,83.91
2022-12-26T10:21:12.611Z,83.78
2022-12-26T10:23:41.633Z,82.96
2022-12-26T10:26:14.351Z,82.71
2022-12-26T10:28:47.116Z,82.54
2022-12-26T10:31:20.222Z,82.08
2022-12-26T10:33:53.301Z,81.39
2022-12-26T10:36:30.451Z,81.07
2022-12-26T10:39:00.651Z,80.89
2022-12-26T10:41:35.062Z,80.00
2022-12-26T10:44:03.118Z,80.69
2022-12-26T10:46:57.908Z,78.90
2022-12-26T10:49:27.790Z,79.96
2022-12-26T10:51:58.034Z,78.94
2022-12-26T10:54:25.924Z,78.83
2022-12-26T10:56:56.629Z,78.01
2022-12-26T10:59:30.214Z,78.01
2022-12-26T11:02:13.913Z,77.01
2022-12-26T11:07:51.266Z,78.80
2022-12-26T11:10:21.751Z,78.20
2022-12-26T11:12:53.085Z,77.40
2022-12-26T11:15:27.905Z,78.28
2022-12-26T11:18:09.391Z,77.16
2022-12-26T11:20:37.379Z,78.33
2022-12-26T11:23:22.675Z,76.41
2022-12-26T11:25:52.797Z,77.15
2022-12-26T11:28:26.009Z,76.82
2022-12-26T11:30:54.133Z,77.91
2022-12-26T11:33:29.602Z,76.83
2022-12-26T11:36:18.019Z,76.89
2022-12-26T11:38:51.446Z,77.82
2022-12-26T11:41:39.643Z,75.90
2022-12-26T11:44:18.719Z,76.11
2022-12-26T11:46:50.856Z,76.52
2022-12-26T11:49:26.022Z,76.90
2022-12-26T11:51:59.281Z,76.66
2022-12-26T11:54:30.923Z,76.62
2022-12-26T11:57:13.627Z,76.48
2022-12-26T11:59:41.359Z,76.32
2022-12-26T12:02:33.342Z,74.79
2022-12-26T12:05:14.113Z,74.93
2022-12-26T12:07:54.046Z,75.74
2022-12-26T12:10:47.557Z,74.79
2022-12-26T12:13:25.491Z,75.27
2022-12-26T12:16:01.007Z,75.88
2022-12-26T12:18:44.891Z,76.44
2022-12-26T12:21:21.664Z,76.44
2022-12-26T12:24:05.817Z,77.06
2022-12-26T12:26:41.544Z,77.42
2022-12-26T12:29:20.932Z,77.60
2022-12-26T12:32:07.320Z,77.41
2022-12-26T12:34:52.171Z,77.87
2022-12-26T12:37:33.659Z,78.00
2022-12-26T12:40:14.685Z,77.91
2022-12-26T12:42:55.507Z,77.71
2022-12-26T12:45:43.206Z,78.08
2022-12-26T12:48:33.372Z,78.34
2022-12-26T12:51:07.737Z,78.10
2022-12-26T12:53:57.215Z,78.25
2022-12-26T12:56:35.736Z,78.22
2022-12-26T12:59:16.482Z,78.00
2022-12-26T13:01:47.885Z,78.65
2022-12-26T13:04:21.131Z,79.21
2022-12-26T13:06:54.880Z,79.02
2022-12-26T13:09:29.430Z,79.00
2022-12-26T13:12:02.500Z,79.37
2022-12-26T13:14:36.071Z,80.00
2022-12-26T13:17:09.743Z,80.71
2022-12-26T13:19:41.832Z,81.06
2022-12-26T13:22:14.964Z,81.43
2022-12-26T13:24:46.242Z,81.75
2022-12-26T13:27:19.235Z,82.09
2022-12-26T13:29:49.092Z,82.90
2022-12-26T13:32:25.469Z,83.83
2022-12-26T13:34:54.958Z,82.00
2022-12-26T13:37:55.501Z,82.60
2022-12-26T13:40:27.203Z,82.75
2022-12-26T13:43:15.320Z,82.94
2022-12-26T13:45:57.175Z,83.47
2022-12-26T13:48:57.197Z,82.86
2022-12-26T13:51:46.586Z,83.29
2022-12-26T13:54:16.122Z,83.13
2022-12-26T13:57:08.634Z,82.20
2022-12-26T13:59:43.348Z,80.21
2022-12-26T14:03:15.579Z,80.57
2022-12-26T14:05:35.980Z,78.95
2022-12-26T14:08:11.897Z,79.01
2022-12-26T14:10:46.877Z,79.38
2022-12-26T14:13:41.154Z,79.66
2022-12-26T14:16:15.335Z,79.40
2022-12-26T14:18:54.283Z,79.89
2022-12-26T14:21:41.053Z,79.83
2022-12-26T14:24:23.754Z,79.63
2022-12-26T14:26:59.201Z,78.66
2022-12-26T14:29:35.411Z,79.49
2022-12-26T14:32:18.805Z,79.34
2022-12-26T14:35:01.323Z,79.88
2022-12-26T14:37:41.901Z,81.03
2022-12-26T14:40:25.224Z,80.93
2022-12-26T14:43:14.206Z,81.82
2022-12-26T14:45:46.595Z,82.12
2022-12-26T14:48:56.916Z,82.76
2022-12-26T14:51:39.283Z,83.28
2022-12-26T14:54:39.460Z,83.91
2022-12-26T14:57:46.750Z,84.26
2022-12-26T15:00:36.392Z,84.64
2022-12-26T15:03:34.270Z,84.42
2022-12-26T15:06:39.570Z,84.64
2022-12-26T15:09:25.680Z,84.30
2022-12-26T15:12:10.846Z,84.37
2022-12-26T15:15:14.232Z,84.20
2022-12-26T15:17:51.415Z,84.29
2022-12-26T15:20:58.748Z,84.34
2022-12-26T15:23:53.170Z,84.40
2022-12-26T15:26:44.860Z,84.58
2022-12-26T15:29:35.360Z,84.58
2022-12-26T15:32:10.796Z,84.58
2022-12-26T15:34:58.458Z,84.66
2022-12-26T15:37:42.506Z,84.66
2022-12-26T15:40:15.766Z,84.72
2022-12-26T15:42:55.803Z,84.78
2022-12-26T15:45:40.203Z,84.62
2022-12-26T15:48:16.107Z,84.55
2022-12-26T15:50:57.647Z,84.13
2022-12-26T15:53:42.570Z,84.13
2022-12-26T15:56:48.913Z,84.04
2022-12-26T16:00:03.859Z,84.10
2022-12-26T16:02:46.817Z,84.05
2022-12-26T16:05:33.404Z,83.70
2022-12-26T16:08:13.688Z,83.80
2022-12-26T16:10:43.704Z,83.96
2022-12-26T16:13:22.784Z,83.73
2022-12-26T16:15:53.275Z,83.97
2022-12-26T16:18:22.883Z,83.95
2022-12-26T16:21:22.957Z,84.19
2022-12-26T16:23:54.220Z,83.81
2022-12-26T16:26:27.299Z,83.60
2022-12-26T16:28:55.968Z,84.09
2022-12-26T16:31:27.367Z,84.12
2022-12-26T16:33:57.872Z,84.54
2022-12-26T16:36:28.167Z,84.53
2022-12-26T16:38:56.937Z,84.67
2022-12-26T16:41:27.815Z,85.14
2022-12-26T16:43:56.859Z,85.03
2022-12-26T16:46:28.770Z,85.11
2022-12-26T16:49:00.836Z,85.18
2022-12-26T16:51:39.472Z,85.11
2022-12-26T16:54:19.084Z,84.79
2022-12-26T16:56:51.883Z,84.31
2022-12-26T16:59:22.109Z,84.16
2022-12-26T17:01:52.494Z,84.34
2022-12-26T17:04:22.908Z,83.93
2022-12-26T17:06:53.463Z,83.49
2022-12-26T17:09:23.532Z,83.79
2022-12-26T17:11:55.959Z,83.28
2022-12-26T17:14:29.187Z,83.70
2022-12-26T17:17:01.320Z,83.49
2022-12-26T17:19:30.121Z,83.44
2022-12-26T17:22:21.098Z,83.27
2022-12-26T17:24:50.061Z,83.30
2022-12-26T17:27:23.162Z,83.15
2022-12-26T17:29:54.439Z,83.30
2022-12-26T17:32:29.286Z,82.75
2022-12-26T17:35:01.090Z,82.80
2022-12-26T17:37:29.249Z,83.00
2022-12-26T17:40:04.524Z,82.51
2022-12-26T17:42:44.352Z,82.90
2022-12-26T17:45:17.119Z,83.65
2022-12-26T17:47:44.878Z,83.13
2022-12-26T17:50:12.924Z,83.61
2022-12-26T17:52:41.051Z,82.30
2022-12-26T17:55:16.170Z,82.27
2022-12-26T17:57:45.300Z,82.75
2022-12-26T18:00:18.519Z,83.47
2022-12-26T18:02:46.440Z,83.53
2022-12-26T18:05:14.317Z,83.69
2022-12-26T18:07:42.998Z,83.25
2022-12-26T18:10:18.577Z,82.96
2022-12-26T18:12:48.181Z,83.55
2022-12-26T18:15:16.323Z,83.21
2022-12-26T18:17:44.370Z,83.55
2022-12-26T18:20:17.663Z,83.31
2022-12-26T18:22:46.260Z,83.54
2022-12-26T18:25:14.587Z,83.47
2022-12-26T18:27:43.120Z,83.60
2022-12-26T18:30:16.563Z,83.86
2022-12-26T18:32:44.912Z,82.63
2022-12-26T18:35:12.835Z,83.12
2022-12-26T18:37:42.340Z,83.26
2022-12-26T18:40:24.863Z,82.58
2022-12-26T18:42:52.559Z,82.66
2022-12-26T18:45:21.857Z,82.98
2022-12-26T18:47:49.634Z,82.44
2022-12-26T18:50:17.578Z,81.34
2022-12-26T18:52:49.988Z,81.75
2022-12-26T18:55:21.100Z,82.18
2022-12-26T18:57:48.799Z,82.22
2022-12-26T19:00:18.528Z,82.48
2022-12-26T19:02:48.432Z,82.11
2022-12-26T19:05:18.882Z,82.58
2022-12-26T19:07:48.251Z,82.75
2022-12-26T19:10:16.887Z,82.75
2022-12-26T19:12:45.373Z,82.26
2022-12-26T19:15:14.342Z,82.58
2022-12-26T19:17:43.645Z,82.70
2022-12-26T19:20:18.941Z,82.75
2022-12-26T19:22:47.333Z,83.00
2022-12-26T19:25:16.236Z,83.38
2022-12-26T19:27:44.617Z,83.32
2022-12-26T19:30:13.370Z,83.85
2022-12-26T19:32:43.199Z,84.27
2022-12-26T19:35:14.060Z,84.71
2022-12-26T19:37:42.400Z,85.01
2022-12-26T19:40:12.012Z,85.16
2022-12-26T19:42:39.723Z,85.41
2022-12-26T19:45:09.472Z,85.89
2022-12-26T19:47:37.251Z,86.23
2022-12-26T19:50:07.648Z,86.62
2022-12-26T19:52:38.219Z,86.73
2022-12-26T19:55:07.446Z,86.15
2022-12-26T19:57:35.487Z,86.15
2022-12-26T20:00:03.167Z,86.17
2022-12-26T20:02:40.063Z,86.50
2022-12-26T20:05:08.816Z,86.44
2022-12-26T20:07:38.016Z,86.48
2022-12-26T20:10:06.699Z,86.72
2022-12-26T20:12:34.594Z,87.15
2022-12-26T20:15:02.306Z,87.05
2022-12-26T20:17:30.069Z,87.78
2022-12-26T20:19:57.796Z,87.76
2022-12-26T20:22:25.516Z,88.03
2022-12-26T20:24:54.536Z,88.37
2022-12-26T20:27:22.347Z,88.72
2022-12-26T20:29:49.955Z,88.87
2022-12-26T20:32:17.811Z,89.31
2022-12-26T20:34:45.570Z,89.08
2022-12-26T20:37:13.250Z,88.70
2022-12-26T20:39:40.923Z,88.69
2022-12-26T20:42:11.008Z,88.77
2022-12-26T20:44:41.369Z,89.03
2022-12-26T20:47:09.413Z,88.98
2022-12-26T20:49:37.181Z,88.62
2022-12-26T20:52:05.318Z,88.57
2022-12-26T20:54:33.104Z,88.77
2022-12-26T20:57:00.717Z,88.94
2022-12-26T20:59:29.833Z,88.94
2022-12-26T21:01:57.553Z,89.11
2022-12-26T21:04:25.360Z,88.80
2022-12-26T21:06:53.416Z,89.09
2022-12-26T21:09:21.090Z,88.78
2022-12-26T21:11:48.793Z,88.76
2022-12-26T21:14:19.116Z,88.51
2022-12-26T21:16:50.143Z,88.82
2022-12-26T21:19:18.160Z,88.76
2022-12-26T21:21:50.507Z,88.50
2022-12-26T21:24:21.373Z,88.54
2022-12-26T21:26:49.717Z,88.86
2022-12-26T21:29:21.171Z,88.25
2022-12-26T21:31:50.818Z,88.45
2022-12-26T21:34:20.622Z,88.33
2022-12-26T21:37:02.802Z,89.07
2022-12-26T21:39:30.644Z,88.73
2022-12-26T21:41:58.356Z,88.56
2022-12-26T21:44:26.012Z,87.55
2022-12-26T21:46:55.070Z,87.06
2022-12-26T21:49:22.828Z,87.24
2022-12-26T21:51:50.555Z,86.57
2022-12-26T21:54:35.720Z,86.05
2022-12-26T21:57:03.387Z,85.85
2022-12-26T22:00:00.291Z,85.78
2022-12-26T22:02:51.937Z,85.23
2022-12-26T22:05:21.805Z,85.04
2022-12-26T22:07:53.491Z,84.84
2022-12-26T22:10:38.757Z,85.08
2022-12-26T22:13:07.191Z,85.03
2022-12-26T22:15:52.679Z,84.68
2022-12-26T22:18:21.882Z,85.06
2022-12-26T22:20:49.602Z,85.20
2022-12-26T22:23:17.429Z,84.49
2022-12-26T22:25:45.202Z,85.11
2022-12-26T22:28:12.894Z,85.17
2022-12-26T22:30:48.334Z,85.57
2022-12-26T22:33:16.838Z,84.89
2022-12-26T22:35:47.322Z,84.94
2022-12-26T22:38:15.770Z,84.49
2022-12-26T22:40:44.135Z,85.06
2022-12-26T22:43:11.898Z,85.59
2022-12-26T22:45:42.434Z,85.35
2022-12-26T22:48:10.194Z,85.01
2022-12-26T22:50:37.984Z,85.15
2022-12-26T22:53:06.975Z,85.13
2022-12-26T22:55:34.757Z,85.45
2022-12-26T22:58:02.763Z,85.74
2022-12-26T23:00:30.566Z,85.67
2022-12-26T23:02:58.335Z,85.80
2022-12-26T23:05:26.522Z,85.72
2022-12-26T23:07:54.698Z,85.48
2022-12-26T23:10:24.800Z,85.51
2022-12-26T23:12:53.089Z,85.27
2022-12-26T23:15:23.341Z,85.14
2022-12-26T23:18:19.144Z,85.36
2022-12-26T23:21:04.502Z,85.79
2022-12-26T23:23:32.738Z,85.94
2022-12-26T23:26:02.339Z,85.82
2022-12-26T23:28:47.935Z,85.91
2022-12-26T23:31:15.711Z,85.91
2022-12-26T23:33:43.450Z,85.59
2022-12-26T23:36:11.124Z,86.00
2022-12-26T23:38:38.874Z,85.79
2022-12-26T23:41:07.893Z,86.08
2022-12-26T23:43:35.704Z,85.64
2022-12-26T23:46:09.536Z,85.70
2022-12-26T23:48:37.587Z,86.03
2022-12-26T23:51:07.883Z,85.73
2022-12-26T23:53:36.285Z,86.19
2022-12-26T23:56:07.278Z,86.32
2022-12-26T23:58:38.225Z,86.36
